sensor_id;sensor_type;location;lat;lon;timestamp;pressure;altitude;pressure_sealevel;temperature;humidity
43364;BME280;40636;52.424;-1.948;2024-03-08T00:00:06;100047.97;;;4.97;75.82
43364;BME280;40636;52.424;-1.948;2024-03-08T00:02:39;100038.50;;;4.96;76.44
43364;BME280;40636;52.424;-1.948;2024-03-08T00:05:08;100035.91;;;4.94;76.51
43364;BME280;40636;52.424;-1.948;2024-03-08T00:07:38;100035.91;;;4.94;76.90
43364;BME280;40636;52.424;-1.948;2024-03-08T00:10:07;100027.34;;;4.95;77.12
43364;BME280;40636;52.424;-1.948;2024-03-08T00:12:39;100017.88;;;4.94;76.93
43364;BME280;40636;52.424;-1.948;2024-03-08T00:15:13;100025.63;;;4.94;77.30
43364;BME280;40636;52.424;-1.948;2024-03-08T00:17:43;100029.03;;;4.93;77.25
43364;BME280;40636;52.424;-1.948;2024-03-08T00:20:10;100027.31;;;4.92;77.14
43364;BME280;40636;52.424;-1.948;2024-03-08T00:22:38;100031.59;;;4.93;77.58
43364;BME280;40636;52.424;-1.948;2024-03-08T00:25:06;100020.47;;;4.94;77.49
43364;BME280;40636;52.424;-1.948;2024-03-08T00:27:36;100018.78;;;4.96;77.91
43364;BME280;40636;52.424;-1.948;2024-03-08T00:30:05;100023.09;;;4.97;78.11
43364;BME280;40636;52.424;-1.948;2024-03-08T00:32:32;100021.41;;;4.99;78.12
43364;BME280;40636;52.424;-1.948;2024-03-08T00:34:59;100015.38;;;4.99;78.15
43364;BME280;40636;52.424;-1.948;2024-03-08T00:37:26;100011.06;;;4.98;78.13
43364;BME280;40636;52.424;-1.948;2024-03-08T00:39:53;100012.78;;;4.97;77.93
43364;BME280;40636;52.424;-1.948;2024-03-08T00:42:20;100016.22;;;4.98;78.14
43364;BME280;40636;52.424;-1.948;2024-03-08T00:44:48;100009.38;;;4.98;78.42
43364;BME280;40636;52.424;-1.948;2024-03-08T00:47:18;100003.38;;;4.99;78.25
43364;BME280;40636;52.424;-1.948;2024-03-08T00:49:44;100007.69;;;5.02;78.59
43364;BME280;40636;52.424;-1.948;2024-03-08T00:52:11;100000.84;;;5.02;78.51
43364;BME280;40636;52.424;-1.948;2024-03-08T00:54:38;99996.53;;;5.01;78.35
43364;BME280;40636;52.424;-1.948;2024-03-08T00:57:05;99993.97;;;5.03;78.54
43364;BME280;40636;52.424;-1.948;2024-03-08T00:59:33;99981.97;;;5.02;78.60
43364;BME280;40636;52.424;-1.948;2024-03-08T01:02:01;99977.66;;;5.01;78.89
43364;BME280;40636;52.424;-1.948;2024-03-08T01:04:28;99979.38;;;5.00;78.70
43364;BME280;40636;52.424;-1.948;2024-03-08T01:06:59;99974.22;;;5.00;79.12
43364;BME280;40636;52.424;-1.948;2024-03-08T01:09:26;99969.94;;;5.01;79.14
43364;BME280;40636;52.424;-1.948;2024-03-08T01:11:56;99975.06;;;4.99;79.18
43364;BME280;40636;52.424;-1.948;2024-03-08T01:14:24;99953.63;;;5.00;79.38
43364;BME280;40636;52.424;-1.948;2024-03-08T01:16:52;99960.50;;;5.01;79.52
43364;BME280;40636;52.424;-1.948;2024-03-08T01:19:19;99960.50;;;5.01;79.31
43364;BME280;40636;52.424;-1.948;2024-03-08T01:21:46;99956.22;;;5.02;79.62
43364;BME280;40636;52.424;-1.948;2024-03-08T01:24:12;99951.91;;;5.01;79.85
43364;BME280;40636;52.424;-1.948;2024-03-08T01:26:39;99951.94;;;5.02;79.72
43364;BME280;40636;52.424;-1.948;2024-03-08T01:29:06;99954.53;;;5.04;80.25
43364;BME280;40636;52.424;-1.948;2024-03-08T01:31:35;99941.69;;;5.07;80.25
43364;BME280;40636;52.424;-1.948;2024-03-08T01:34:03;99946.00;;;5.08;80.04
43364;BME280;40636;52.424;-1.948;2024-03-08T01:36:30;99940.00;;;5.09;80.12
43364;BME280;40636;52.424;-1.948;2024-03-08T01:38:57;99946.03;;;5.11;80.21
43364;BME280;40636;52.424;-1.948;2024-03-08T01:41:24;99934.91;;;5.14;80.42
43364;BME280;40636;52.424;-1.948;2024-03-08T01:43:51;99928.06;;;5.16;80.26
43364;BME280;40636;52.424;-1.948;2024-03-08T01:46:20;99920.31;;;5.14;80.48
43364;BME280;40636;52.424;-1.948;2024-03-08T01:48:49;99922.03;;;5.14;80.47
43364;BME280;40636;52.424;-1.948;2024-03-08T01:51:18;99918.63;;;5.16;80.55
43364;BME280;40636;52.424;-1.948;2024-03-08T01:53:47;99922.06;;;5.17;80.79
43364;BME280;40636;52.424;-1.948;2024-03-08T01:56:14;99922.94;;;5.17;80.79
43364;BME280;40636;52.424;-1.948;2024-03-08T01:58:42;99918.66;;;5.18;81.19
43364;BME280;40636;52.424;-1.948;2024-03-08T02:01:14;99911.78;;;5.18;81.18
43364;BME280;40636;52.424;-1.948;2024-03-08T02:03:42;99915.28;;;5.22;81.24
43364;BME280;40636;52.424;-1.948;2024-03-08T02:06:12;99912.72;;;5.22;81.19
43364;BME280;40636;52.424;-1.948;2024-03-08T02:08:44;99899.00;;;5.23;81.49
43364;BME280;40636;52.424;-1.948;2024-03-08T02:11:13;99892.13;;;5.23;81.47
43364;BME280;40636;52.424;-1.948;2024-03-08T02:13:40;99893.00;;;5.24;81.40
43364;BME280;40636;52.424;-1.948;2024-03-08T02:16:06;99886.13;;;5.24;81.57
43364;BME280;40636;52.424;-1.948;2024-03-08T02:18:36;99880.13;;;5.25;81.61
43364;BME280;40636;52.424;-1.948;2024-03-08T02:21:05;99884.44;;;5.26;81.75
43364;BME280;40636;52.424;-1.948;2024-03-08T02:23:33;99877.59;;;5.28;81.86
43364;BME280;40636;52.424;-1.948;2024-03-08T02:26:00;99875.03;;;5.28;81.54
43364;BME280;40636;52.424;-1.948;2024-03-08T02:28:27;99861.31;;;5.29;81.58
43364;BME280;40636;52.424;-1.948;2024-03-08T02:30:55;99859.59;;;5.30;81.81
43364;BME280;40636;52.424;-1.948;2024-03-08T02:33:24;99861.31;;;5.31;82.13
43364;BME280;40636;52.424;-1.948;2024-03-08T02:35:51;99856.19;;;5.32;82.03
43364;BME280;40636;52.424;-1.948;2024-03-08T02:38:20;99849.31;;;5.33;81.83
43364;BME280;40636;52.424;-1.948;2024-03-08T02:40:51;99845.91;;;5.34;82.07
43364;BME280;40636;52.424;-1.948;2024-03-08T02:43:20;99839.03;;;5.36;82.01
43364;BME280;40636;52.424;-1.948;2024-03-08T02:45:48;99838.19;;;5.37;82.11
43364;BME280;40636;52.424;-1.948;2024-03-08T02:48:16;99832.19;;;5.38;82.16
43364;BME280;40636;52.424;-1.948;2024-03-08T02:50:43;99833.03;;;5.37;82.07
43364;BME280;40636;52.424;-1.948;2024-03-08T02:53:12;99832.19;;;5.38;82.49
43364;BME280;40636;52.424;-1.948;2024-03-08T02:55:40;99832.22;;;5.39;82.07
43364;BME280;40636;52.424;-1.948;2024-03-08T02:58:08;99821.06;;;5.40;82.35
43364;BME280;40636;52.424;-1.948;2024-03-08T03:00:38;99816.78;;;5.41;82.43
43364;BME280;40636;52.424;-1.948;2024-03-08T03:03:06;99818.50;;;5.42;82.41
43364;BME280;40636;52.424;-1.948;2024-03-08T03:05:33;99815.06;;;5.43;82.49
43364;BME280;40636;52.424;-1.948;2024-03-08T03:08:01;99808.22;;;5.44;82.56
43364;BME280;40636;52.424;-1.948;2024-03-08T03:10:28;99796.19;;;5.44;82.73
43364;BME280;40636;52.424;-1.948;2024-03-08T03:12:54;99796.19;;;5.46;82.46
43364;BME280;40636;52.424;-1.948;2024-03-08T03:15:21;99789.34;;;5.46;82.71
43364;BME280;40636;52.424;-1.948;2024-03-08T03:17:53;99781.63;;;5.48;82.32
43364;BME280;40636;52.424;-1.948;2024-03-08T03:20:20;99777.31;;;5.47;82.85
43364;BME280;40636;52.424;-1.948;2024-03-08T03:22:53;99773.88;;;5.46;82.46
43364;BME280;40636;52.424;-1.948;2024-03-08T03:25:21;99777.34;;;5.48;82.43
43364;BME280;40636;52.424;-1.948;2024-03-08T03:27:52;99773.91;;;5.48;82.57
43364;BME280;40636;52.424;-1.948;2024-03-08T03:30:26;99767.03;;;5.48;82.66
43364;BME280;40636;52.424;-1.948;2024-03-08T03:32:53;99762.72;;;5.47;82.65
43364;BME280;40636;52.424;-1.948;2024-03-08T03:35:29;99760.16;;;5.47;82.59
43364;BME280;40636;52.424;-1.948;2024-03-08T03:37:56;99760.16;;;5.47;82.61
43364;BME280;40636;52.424;-1.948;2024-03-08T03:40:38;99756.72;;;5.48;82.78
43364;BME280;40636;52.424;-1.948;2024-03-08T03:43:06;99746.41;;;5.47;82.74
43364;BME280;40636;52.424;-1.948;2024-03-08T03:45:33;99744.69;;;5.46;82.62
43364;BME280;40636;52.424;-1.948;2024-03-08T03:48:05;99728.38;;;5.47;82.92
43364;BME280;40636;52.424;-1.948;2024-03-08T03:50:34;99729.25;;;5.47;82.93
43364;BME280;40636;52.424;-1.948;2024-03-08T03:53:03;99728.38;;;5.47;82.72
43364;BME280;40636;52.424;-1.948;2024-03-08T03:55:30;99732.69;;;5.48;82.94
43364;BME280;40636;52.424;-1.948;2024-03-08T03:57:56;99723.22;;;5.47;82.78
43364;BME280;40636;52.424;-1.948;2024-03-08T04:00:26;99716.38;;;5.49;82.77
43364;BME280;40636;52.424;-1.948;2024-03-08T04:02:54;99715.50;;;5.48;82.88
43364;BME280;40636;52.424;-1.948;2024-03-08T04:05:21;99717.22;;;5.49;82.89
43364;BME280;40636;52.424;-1.948;2024-03-08T04:07:48;99714.66;;;5.49;82.73
43364;BME280;40636;52.424;-1.948;2024-03-08T04:10:15;99706.91;;;5.48;82.68
43364;BME280;40636;52.424;-1.948;2024-03-08T04:12:42;99710.34;;;5.48;82.91
43364;BME280;40636;52.424;-1.948;2024-03-08T04:15:09;99706.94;;;5.49;83.05
43364;BME280;40636;52.424;-1.948;2024-03-08T04:17:38;99700.91;;;5.49;82.55
43364;BME280;40636;52.424;-1.948;2024-03-08T04:20:05;99700.91;;;5.49;82.70
43364;BME280;40636;52.424;-1.948;2024-03-08T04:22:41;99701.78;;;5.48;82.71
43364;BME280;40636;52.424;-1.948;2024-03-08T04:25:09;99704.34;;;5.48;82.68
43364;BME280;40636;52.424;-1.948;2024-03-08T04:27:36;99687.16;;;5.47;82.67
43364;BME280;40636;52.424;-1.948;2024-03-08T04:30:03;99691.47;;;5.48;82.63
43364;BME280;40636;52.424;-1.948;2024-03-08T04:32:30;99694.91;;;5.48;82.42
43364;BME280;40636;52.424;-1.948;2024-03-08T04:34:59;99689.75;;;5.48;82.78
43364;BME280;40636;52.424;-1.948;2024-03-08T04:37:28;99691.47;;;5.49;82.16
43364;BME280;40636;52.424;-1.948;2024-03-08T04:39:58;99694.06;;;5.49;82.45
43364;BME280;40636;52.424;-1.948;2024-03-08T04:42:29;99694.91;;;5.48;82.38
43364;BME280;40636;52.424;-1.948;2024-03-08T04:44:59;99694.03;;;5.46;82.53
43364;BME280;40636;52.424;-1.948;2024-03-08T04:47:26;99692.31;;;5.48;82.33
43364;BME280;40636;52.424;-1.948;2024-03-08T04:49:53;99691.47;;;5.46;82.28
43364;BME280;40636;52.424;-1.948;2024-03-08T04:52:21;99685.44;;;5.47;82.30
43364;BME280;40636;52.424;-1.948;2024-03-08T04:54:48;99689.75;;;5.48;82.32
43364;BME280;40636;52.424;-1.948;2024-03-08T04:57:15;99689.75;;;5.47;82.33
43364;BME280;40636;52.424;-1.948;2024-03-08T04:59:45;99685.44;;;5.47;82.24
43364;BME280;40636;52.424;-1.948;2024-03-08T05:02:11;99682.88;;;5.46;82.32
43364;BME280;40636;52.424;-1.948;2024-03-08T05:04:38;99689.72;;;5.45;82.29
43364;BME280;40636;52.424;-1.948;2024-03-08T05:07:05;99686.28;;;5.45;82.30
43364;BME280;40636;52.424;-1.948;2024-03-08T05:09:32;99680.28;;;5.44;82.27
43364;BME280;40636;52.424;-1.948;2024-03-08T05:11:59;99678.56;;;5.45;82.40
43364;BME280;40636;52.424;-1.948;2024-03-08T05:14:26;99678.56;;;5.46;82.27
43364;BME280;40636;52.424;-1.948;2024-03-08T05:16:53;99677.69;;;5.44;82.27
43364;BME280;40636;52.424;-1.948;2024-03-08T05:19:20;99678.56;;;5.43;82.26
43364;BME280;40636;52.424;-1.948;2024-03-08T05:21:48;99671.69;;;5.42;82.20
43364;BME280;40636;52.424;-1.948;2024-03-08T05:24:16;99663.97;;;5.44;82.20
43364;BME280;40636;52.424;-1.948;2024-03-08T05:26:45;99662.25;;;5.44;82.34
43364;BME280;40636;52.424;-1.948;2024-03-08T05:29:12;99660.53;;;5.43;82.43
43364;BME280;40636;52.424;-1.948;2024-03-08T05:31:47;99644.22;;;5.43;82.32
43364;BME280;40636;52.424;-1.948;2024-03-08T05:34:15;99643.34;;;5.42;82.32
43364;BME280;40636;52.424;-1.948;2024-03-08T05:36:42;99645.91;;;5.40;82.35
43364;BME280;40636;52.424;-1.948;2024-03-08T05:39:21;99639.03;;;5.39;82.44
43364;BME280;40636;52.424;-1.948;2024-03-08T05:41:48;99647.63;;;5.40;82.62
43364;BME280;40636;52.424;-1.948;2024-03-08T05:44:15;99639.91;;;5.38;82.46
43364;BME280;40636;52.424;-1.948;2024-03-08T05:46:44;99638.19;;;5.39;82.53
43364;BME280;40636;52.424;-1.948;2024-03-08T05:49:10;99629.59;;;5.40;82.51
43364;BME280;40636;52.424;-1.948;2024-03-08T05:51:39;99624.44;;;5.40;82.65
43364;BME280;40636;52.424;-1.948;2024-03-08T05:54:08;99621.88;;;5.40;82.41
43364;BME280;40636;52.424;-1.948;2024-03-08T05:56:41;99618.44;;;5.39;82.59
43364;BME280;40636;52.424;-1.948;2024-03-08T05:59:13;99615.84;;;5.39;82.73
43364;BME280;40636;52.424;-1.948;2024-03-08T06:01:40;99615.00;;;5.39;82.76
43364;BME280;40636;52.424;-1.948;2024-03-08T06:04:09;99612.41;;;5.37;82.63
43364;BME280;40636;52.424;-1.948;2024-03-08T06:06:38;99618.44;;;5.38;82.35
43364;BME280;40636;52.424;-1.948;2024-03-08T06:09:06;99614.13;;;5.37;82.80
43364;BME280;40636;52.424;-1.948;2024-03-08T06:11:39;99619.28;;;5.37;82.64
43364;BME280;40636;52.424;-1.948;2024-03-08T06:14:06;99604.69;;;5.36;82.75
43364;BME280;40636;52.424;-1.948;2024-03-08T06:16:33;99615.84;;;5.38;82.75
43364;BME280;40636;52.424;-1.948;2024-03-08T06:19:02;99602.09;;;5.36;82.54
43364;BME280;40636;52.424;-1.948;2024-03-08T06:21:29;99616.69;;;5.35;82.36
43364;BME280;40636;52.424;-1.948;2024-03-08T06:23:56;99593.50;;;5.34;82.27
43364;BME280;40636;52.424;-1.948;2024-03-08T06:26:24;99596.97;;;5.36;82.25
43364;BME280;40636;52.424;-1.948;2024-03-08T06:28:56;99587.50;;;5.35;82.24
43364;BME280;40636;52.424;-1.948;2024-03-08T06:31:23;99586.66;;;5.36;82.32
43364;BME280;40636;52.424;-1.948;2024-03-08T06:33:50;99583.22;;;5.35;82.25
43364;BME280;40636;52.424;-1.948;2024-03-08T06:36:17;99579.78;;;5.35;82.28
43364;BME280;40636;52.424;-1.948;2024-03-08T06:38:51;99581.50;;;5.36;81.99
43364;BME280;40636;52.424;-1.948;2024-03-08T06:41:18;99578.91;;;5.34;82.08
43364;BME280;40636;52.424;-1.948;2024-03-08T06:43:46;99583.22;;;5.34;81.75
43364;BME280;40636;52.424;-1.948;2024-03-08T06:46:16;99578.06;;;5.34;81.48
43364;BME280;40636;52.424;-1.948;2024-03-08T06:48:44;99572.91;;;5.34;81.42
43364;BME280;40636;52.424;-1.948;2024-03-08T06:51:12;99573.78;;;5.34;81.31
43364;BME280;40636;52.424;-1.948;2024-03-08T06:53:41;99578.06;;;5.34;81.45
43364;BME280;40636;52.424;-1.948;2024-03-08T06:56:07;99578.06;;;5.34;81.22
43364;BME280;40636;52.424;-1.948;2024-03-08T06:58:35;99568.63;;;5.34;81.17
43364;BME280;40636;52.424;-1.948;2024-03-08T07:01:02;99568.63;;;5.36;81.12
43364;BME280;40636;52.424;-1.948;2024-03-08T07:03:31;99572.06;;;5.33;80.95
43364;BME280;40636;52.424;-1.948;2024-03-08T07:05:59;99579.78;;;5.35;80.71
43364;BME280;40636;52.424;-1.948;2024-03-08T07:08:29;99572.91;;;5.34;81.04
43364;BME280;40636;52.424;-1.948;2024-03-08T07:10:56;99580.66;;;5.35;80.85
43364;BME280;40636;52.424;-1.948;2024-03-08T07:13:25;99576.34;;;5.36;80.77
43364;BME280;40636;52.424;-1.948;2024-03-08T07:15:53;99577.22;;;5.35;80.55
43364;BME280;40636;52.424;-1.948;2024-03-08T07:18:21;99572.06;;;5.35;80.70
43364;BME280;40636;52.424;-1.948;2024-03-08T07:20:48;99575.50;;;5.35;80.36
43364;BME280;40636;52.424;-1.948;2024-03-08T07:23:15;99568.63;;;5.37;80.35
43364;BME280;40636;52.424;-1.948;2024-03-08T07:26:01;99579.78;;;5.36;80.14
43364;BME280;40636;52.424;-1.948;2024-03-08T07:28:28;99577.22;;;5.35;80.02
43364;BME280;40636;52.424;-1.948;2024-03-08T07:30:58;99574.63;;;5.33;79.86
43364;BME280;40636;52.424;-1.948;2024-03-08T07:33:43;99573.78;;;5.36;80.33
43364;BME280;40636;52.424;-1.948;2024-03-08T07:36:11;99579.78;;;5.36;80.36
43364;BME280;40636;52.424;-1.948;2024-03-08T07:38:38;99574.63;;;5.36;80.21
43364;BME280;40636;52.424;-1.948;2024-03-08T07:41:04;99578.06;;;5.37;80.17
43364;BME280;40636;52.424;-1.948;2024-03-08T07:43:31;99568.63;;;5.37;80.10
43364;BME280;40636;52.424;-1.948;2024-03-08T07:45:59;99569.50;;;5.39;79.90
43364;BME280;40636;52.424;-1.948;2024-03-08T07:48:26;99577.22;;;5.39;79.82
43364;BME280;40636;52.424;-1.948;2024-03-08T07:50:53;99583.25;;;5.40;79.87
43364;BME280;40636;52.424;-1.948;2024-03-08T07:53:20;99575.53;;;5.42;79.92
43364;BME280;40636;52.424;-1.948;2024-03-08T07:55:47;99566.09;;;5.44;79.87
43364;BME280;40636;52.424;-1.948;2024-03-08T07:58:14;99558.38;;;5.44;79.86
43364;BME280;40636;52.424;-1.948;2024-03-08T08:00:41;99561.78;;;5.41;79.76
43364;BME280;40636;52.424;-1.948;2024-03-08T08:03:09;99554.91;;;5.40;79.65
43364;BME280;40636;52.424;-1.948;2024-03-08T08:05:36;99557.50;;;5.42;79.51
43364;BME280;40636;52.424;-1.948;2024-03-08T08:08:07;99554.06;;;5.46;79.80
43364;BME280;40636;52.424;-1.948;2024-03-08T08:10:33;99548.06;;;5.45;79.52
43364;BME280;40636;52.424;-1.948;2024-03-08T08:13:01;99550.63;;;5.45;79.68
43364;BME280;40636;52.424;-1.948;2024-03-08T08:15:31;99547.22;;;5.46;79.35
43364;BME280;40636;52.424;-1.948;2024-03-08T08:18:01;99541.19;;;5.46;79.12
43364;BME280;40636;52.424;-1.948;2024-03-08T08:20:29;99546.34;;;5.44;79.23
43364;BME280;40636;52.424;-1.948;2024-03-08T08:22:56;99544.63;;;5.45;79.22
43364;BME280;40636;52.424;-1.948;2024-03-08T08:25:23;99540.34;;;5.44;79.41
43364;BME280;40636;52.424;-1.948;2024-03-08T08:27:51;99548.09;;;5.50;79.63
43364;BME280;40636;52.424;-1.948;2024-03-08T08:30:20;99535.22;;;5.57;79.61
43364;BME280;40636;52.424;-1.948;2024-03-08T08:32:47;99532.66;;;5.59;79.41
43364;BME280;40636;52.424;-1.948;2024-03-08T08:35:15;99539.53;;;5.61;79.30
43364;BME280;40636;52.424;-1.948;2024-03-08T08:37:42;99530.09;;;5.62;79.42
43364;BME280;40636;52.424;-1.948;2024-03-08T08:40:11;99529.25;;;5.63;79.41
43364;BME280;40636;52.424;-1.948;2024-03-08T08:42:42;99516.38;;;5.67;79.18
43364;BME280;40636;52.424;-1.948;2024-03-08T08:45:09;99521.53;;;5.69;79.26
43364;BME280;40636;52.424;-1.948;2024-03-08T08:47:43;99514.66;;;5.69;79.03
43364;BME280;40636;52.424;-1.948;2024-03-08T08:50:12;99510.38;;;5.70;79.02
43364;BME280;40636;52.424;-1.948;2024-03-08T08:52:40;99506.06;;;5.70;79.21
43364;BME280;40636;52.424;-1.948;2024-03-08T08:55:07;99514.66;;;5.69;79.15
43364;BME280;40636;52.424;-1.948;2024-03-08T08:57:34;99512.09;;;5.71;78.93
43364;BME280;40636;52.424;-1.948;2024-03-08T09:00:03;99515.53;;;5.75;78.72
43364;BME280;40636;52.424;-1.948;2024-03-08T09:02:34;99508.66;;;5.75;78.68
43364;BME280;40636;52.424;-1.948;2024-03-08T09:05:01;99496.63;;;5.76;78.39
43364;BME280;40636;52.424;-1.948;2024-03-08T09:07:29;99497.53;;;5.79;78.31
43364;BME280;40636;52.424;-1.948;2024-03-08T09:09:56;99498.41;;;5.84;78.22
43364;BME280;40636;52.424;-1.948;2024-03-08T09:12:25;99493.25;;;5.86;77.97
43364;BME280;40636;52.424;-1.948;2024-03-08T09:14:52;99487.25;;;5.85;77.77
43364;BME280;40636;52.424;-1.948;2024-03-08T09:17:19;99488.97;;;5.88;77.70
43364;BME280;40636;52.424;-1.948;2024-03-08T09:19:47;99482.13;;;5.90;77.61
43364;BME280;40636;52.424;-1.948;2024-03-08T09:22:14;99483.00;;;5.95;77.90
43364;BME280;40636;52.424;-1.948;2024-03-08T09:24:41;99472.69;;;6.01;78.35
43364;BME280;40636;52.424;-1.948;2024-03-08T09:27:09;99472.69;;;6.07;77.79
43364;BME280;40636;52.424;-1.948;2024-03-08T09:29:36;99472.69;;;6.10;77.56
43364;BME280;40636;52.424;-1.948;2024-03-08T09:32:03;99469.25;;;6.13;77.70
43364;BME280;40636;52.424;-1.948;2024-03-08T09:34:31;99459.81;;;6.15;77.25
43364;BME280;40636;52.424;-1.948;2024-03-08T09:37:03;99460.66;;;6.15;77.63
43364;BME280;40636;52.424;-1.948;2024-03-08T09:39:31;99461.53;;;6.14;77.52
43364;BME280;40636;52.424;-1.948;2024-03-08T09:42:01;99456.38;;;6.17;77.58
43364;BME280;40636;52.424;-1.948;2024-03-08T09:44:28;99445.19;;;6.15;77.47
43364;BME280;40636;52.424;-1.948;2024-03-08T09:47:00;99447.78;;;6.15;76.99
43364;BME280;40636;52.424;-1.948;2024-03-08T09:49:29;99450.34;;;6.12;76.96
43364;BME280;40636;52.424;-1.948;2024-03-08T09:51:56;99442.63;;;6.12;76.66
43364;BME280;40636;52.424;-1.948;2024-03-08T09:54:23;99443.47;;;6.14;77.20
43364;BME280;40636;52.424;-1.948;2024-03-08T09:56:53;99435.75;;;6.17;76.47
43364;BME280;40636;52.424;-1.948;2024-03-08T09:59:20;99429.72;;;6.23;76.79
43364;BME280;40636;52.424;-1.948;2024-03-08T10:01:49;99440.03;;;6.23;75.56
43364;BME280;40636;52.424;-1.948;2024-03-08T10:04:18;99420.25;;;6.25;75.20
43364;BME280;40636;52.424;-1.948;2024-03-08T10:06:45;99429.72;;;6.27;75.31
43364;BME280;40636;52.424;-1.948;2024-03-08T10:09:14;99422.84;;;6.28;75.05
43364;BME280;40636;52.424;-1.948;2024-03-08T10:11:40;99414.25;;;6.29;75.18
43364;BME280;40636;52.424;-1.948;2024-03-08T10:14:09;99415.97;;;6.30;74.79
43364;BME280;40636;52.424;-1.948;2024-03-08T10:16:40;99409.94;;;6.32;74.85
43364;BME280;40636;52.424;-1.948;2024-03-08T10:19:07;99415.09;;;6.32;74.54
43364;BME280;40636;52.424;-1.948;2024-03-08T10:21:34;99397.03;;;6.31;74.45
43364;BME280;40636;52.424;-1.948;2024-03-08T10:24:02;99397.91;;;6.34;75.02
43364;BME280;40636;52.424;-1.948;2024-03-08T10:26:30;99390.19;;;6.39;75.08
43364;BME280;40636;52.424;-1.948;2024-03-08T10:28:57;99390.16;;;6.44;75.18
43364;BME280;40636;52.424;-1.948;2024-03-08T10:31:24;99397.91;;;6.51;75.24
43364;BME280;40636;52.424;-1.948;2024-03-08T10:33:52;99382.41;;;6.57;74.73
43364;BME280;40636;52.424;-1.948;2024-03-08T10:36:19;99383.25;;;6.61;73.44
43364;BME280;40636;52.424;-1.948;2024-03-08T10:38:46;99378.06;;;6.64;74.04
43364;BME280;40636;52.424;-1.948;2024-03-08T10:41:15;99373.75;;;6.68;74.10
43364;BME280;40636;52.424;-1.948;2024-03-08T10:43:52;99369.44;;;6.76;74.34
43364;BME280;40636;52.424;-1.948;2024-03-08T10:49:00;99359.09;;;6.79;74.00
43364;BME280;40636;52.424;-1.948;2024-03-08T10:51:30;99365.97;;;6.80;73.83
43364;BME280;40636;52.424;-1.948;2024-03-08T10:53:57;99371.13;;;6.80;73.41
43364;BME280;40636;52.424;-1.948;2024-03-08T10:56:24;99350.47;;;6.81;73.17
43364;BME280;40636;52.424;-1.948;2024-03-08T10:58:54;99346.16;;;6.85;73.91
43364;BME280;40636;52.424;-1.948;2024-03-08T11:01:22;99344.44;;;6.85;73.08
43364;BME280;40636;52.424;-1.948;2024-03-08T11:03:52;99344.44;;;6.85;72.99
43364;BME280;40636;52.424;-1.948;2024-03-08T11:06:44;99340.13;;;6.86;72.74
43364;BME280;40636;52.424;-1.948;2024-03-08T11:14:52;99335.81;;;6.95;72.72
43364;BME280;40636;52.424;-1.948;2024-03-08T11:19:56;99334.94;;;6.92;71.52
43364;BME280;40636;52.424;-1.948;2024-03-08T11:22:28;99343.53;;;6.92;71.22
43364;BME280;40636;52.424;-1.948;2024-03-08T11:25:08;99328.91;;;6.91;70.58
43364;BME280;40636;52.424;-1.948;2024-03-08T11:27:39;99328.06;;;6.89;70.25
43364;BME280;40636;52.424;-1.948;2024-03-08T11:30:07;99323.75;;;6.91;71.16
43364;BME280;40636;52.424;-1.948;2024-03-08T11:32:47;99309.13;;;6.93;71.52
43364;BME280;40636;52.424;-1.948;2024-03-08T11:35:22;99313.41;;;6.93;70.80
43364;BME280;40636;52.424;-1.948;2024-03-08T11:37:50;99306.53;;;6.93;71.77
43364;BME280;40636;52.424;-1.948;2024-03-08T11:40:17;99318.59;;;6.97;72.19
43364;BME280;40636;52.424;-1.948;2024-03-08T11:42:47;99305.66;;;7.02;72.48
43364;BME280;40636;52.424;-1.948;2024-03-08T11:45:15;99297.00;;;7.09;72.25
43364;BME280;40636;52.424;-1.948;2024-03-08T11:47:44;99298.66;;;7.19;72.05
43364;BME280;40636;52.424;-1.948;2024-03-08T11:50:15;99297.78;;;7.23;72.06
43364;BME280;40636;52.424;-1.948;2024-03-08T11:52:43;99290.00;;;7.25;71.84
43364;BME280;40636;52.424;-1.948;2024-03-08T11:55:11;99298.59;;;7.30;71.69
43364;BME280;40636;52.424;-1.948;2024-03-08T11:57:39;99288.22;;;7.33;71.21
43364;BME280;40636;52.424;-1.948;2024-03-08T12:00:15;99274.44;;;7.34;70.76
43364;BME280;40636;52.424;-1.948;2024-03-08T12:03:03;99275.31;;;7.35;70.15
43364;BME280;40636;52.424;-1.948;2024-03-08T12:05:30;99264.06;;;7.40;69.72
43364;BME280;40636;52.424;-1.948;2024-03-08T12:08:01;99270.06;;;7.42;69.57
43364;BME280;40636;52.424;-1.948;2024-03-08T12:10:28;99265.72;;;7.47;70.06
43364;BME280;40636;52.424;-1.948;2024-03-08T12:12:58;99261.41;;;7.54;69.84
43364;BME280;40636;52.424;-1.948;2024-03-08T12:15:29;99250.16;;;7.58;69.27
43364;BME280;40636;52.424;-1.948;2024-03-08T12:17:59;99253.59;;;7.58;67.81
43364;BME280;40636;52.424;-1.948;2024-03-08T12:20:28;99253.59;;;7.60;66.63
43364;BME280;40636;52.424;-1.948;2024-03-08T12:22:59;99244.03;;;7.68;68.09
43364;BME280;40636;52.424;-1.948;2024-03-08T12:25:35;99237.09;;;7.73;68.21
43364;BME280;40636;52.424;-1.948;2024-03-08T12:28:12;99235.28;;;7.81;68.46
43364;BME280;40636;52.424;-1.948;2024-03-08T12:30:48;99227.44;;;7.89;69.00
43364;BME280;40636;52.424;-1.948;2024-03-08T12:33:16;99228.31;;;7.89;67.84
43364;BME280;40636;52.424;-1.948;2024-03-08T12:35:51;99229.16;;;7.90;66.98
43364;BME280;40636;52.424;-1.948;2024-03-08T12:38:21;99218.81;;;7.91;67.46
43364;BME280;40636;52.424;-1.948;2024-03-08T12:40:58;99208.41;;;7.96;67.73
43364;BME280;40636;52.424;-1.948;2024-03-08T12:43:25;99205.78;;;8.01;67.26
43364;BME280;40636;52.424;-1.948;2024-03-08T12:45:52;99210.00;;;8.08;67.10
43364;BME280;40636;52.424;-1.948;2024-03-08T12:48:19;99199.66;;;8.08;66.96
43364;BME280;40636;52.424;-1.948;2024-03-08T12:50:47;99196.19;;;8.12;67.50
43364;BME280;40636;52.424;-1.948;2024-03-08T12:53:14;99196.09;;;8.19;67.46
43364;BME280;40636;52.424;-1.948;2024-03-08T12:55:41;99187.47;;;8.20;66.09
43364;BME280;40636;52.424;-1.948;2024-03-08T12:58:09;99185.81;;;8.15;65.89
43364;BME280;40636;52.424;-1.948;2024-03-08T13:00:36;99169.47;;;8.10;65.84
43364;BME280;40636;52.424;-1.948;2024-03-08T13:03:03;99170.25;;;8.16;67.04
43364;BME280;40636;52.424;-1.948;2024-03-08T13:05:30;99183.13;;;8.21;65.89
43364;BME280;40636;52.424;-1.948;2024-03-08T13:07:57;99180.50;;;8.24;67.11
43364;BME280;40636;52.424;-1.948;2024-03-08T13:10:24;99168.38;;;8.28;66.84
43364;BME280;40636;52.424;-1.948;2024-03-08T13:12:51;99156.28;;;8.30;66.72
43364;BME280;40636;52.424;-1.948;2024-03-08T13:15:20;99156.25;;;8.36;67.38
43364;BME280;40636;52.424;-1.948;2024-03-08T13:17:48;99157.94;;;8.37;66.14